Time,TemperatureF,DewpointF,PressureIn,WindDirection,WindDirectionDegrees,WindSpeedMPH,WindSpeedGustMPH,Humidity,HourlyPrecipIn,Conditions,Clouds,dailyrainin,SoftwareType,DateUTC
2013-05-12 00:10:00,46.1,43.0,29.77,NNW,344,8.0,25.0,87,0.01,,,0.18,weatherlink.com 1.10,2013-05-12 04:10:00,
2013-05-12 00:25:00,42.3,41.0,29.79,NW,313,7.0,16.0,94,0.01,,,0.00,weatherlink.com 1.10,2013-05-12 04:25:00,
2013-05-12 00:40:00,41.6,40.0,29.80,WNW,287,13.0,21.0,95,0.01,,,0.00,weatherlink.com 1.10,2013-05-12 04:40:00,
2013-05-12 00:55:00,41.0,40.0,29.81,WNW,290,6.0,20.0,95,0.01,,,0.00,weatherlink.com 1.10,2013-05-12 04:55:00,
2013-05-12 01:10:00,40.3,39.0,29.81,WNW,292,9.0,16.0,94,0.00,,,0.00,weatherlink.com 1.10,2013-05-12 05:10:00,
2013-05-12 01:25:00,39.5,37.0,29.82,NW,318,9.0,19.0,92,0.00,,,0.00,weatherlink.com 1.10,2013-05-12 05:25:00,
2013-05-12 01:40:00,38.9,37.0,29.83,NW,320,14.0,18.0,91,0.00,,,0.00,weatherlink.com 1.10,2013-05-12 05:40:00,
2013-05-12 01:55:00,38.3,36.0,29.83,NW,321,7.0,17.0,91,0.00,,,0.00,weatherlink.com 1.10,2013-05-12 05:55:00,
2013-05-12 02:10:00,38.0,36.0,29.83,West,279,9.0,14.0,92,0.00,,,0.00,weatherlink.com 1.10,2013-05-12 06:10:00,
2013-05-12 02:25:00,37.7,35.0,29.83,WNW,292,6.0,12.0,91,0.00,,,0.00,weatherlink.com 1.10,2013-05-12 06:25:00,
2013-05-12 02:40:00,37.4,35.0,29.83,WNW,294,7.0,11.0,90,0.00,,,0.00,weatherlink.com 1.10,2013-05-12 06:40:00,
2013-05-12 02:55:00,37.0,34.0,29.84,NW,308,5.0,13.0,89,0.00,,,0.00,weatherlink.com 1.10,2013-05-12 06:55:00,
2013-05-12 03:10:00,36.7,34.0,29.84,WNW,291,6.0,11.0,88,0.00,,,0.00,weatherlink.com 1.10,2013-05-12 07:10:00,
2013-05-12 03:25:00,36.2,33.0,29.84,NW,306,7.0,9.0,89,0.00,,,0.00,weatherlink.com 1.10,2013-05-12 07:25:00,
2013-05-12 03:40:00,35.9,33.0,29.84,NW,310,7.0,7.0,89,0.00,,,0.00,weatherlink.com 1.10,2013-05-12 07:40:00,
2013-05-12 03:55:00,35.9,33.0,29.84,WNW,284,2.0,6.0,89,0.00,,,0.00,weatherlink.com 1.10,2013-05-12 07:55:00,
2013-05-12 04:10:00,35.8,33.0,29.84,West,272,4.0,6.0,90,0.00,,,0.00,weatherlink.com 1.10,2013-05-12 08:10:00,
2013-05-12 04:25:00,35.7,33.0,29.84,WSW,244,3.0,7.0,90,0.00,,,0.00,weatherlink.com 1.10,2013-05-12 08:25:00,
2013-05-12 04:40:00,35.4,33.0,29.84,SW,227,3.0,6.0,91,0.00,,,0.00,weatherlink.com 1.10,2013-05-12 08:40:00,
2013-05-12 04:55:00,34.9,33.0,29.84,SSW,196,6.0,7.0,92,0.00,,,0.00,weatherlink.com 1.10,2013-05-12 08:55:00,
2013-05-12 05:10:00,34.4,33.0,29.84,SSW,209,4.0,6.0,93,0.00,,,0.00,weatherlink.com 1.10,2013-05-12 09:10:00,
2013-05-12 05:25:00,34.1,33.0,29.84,SSW,201,4.0,7.0,94,0.00,,,0.00,weatherlink.com 1.10,2013-05-12 09:25:00,
2013-05-12 05:40:00,33.8,32.0,29.84,SSW,198,4.0,7.0,94,0.00,,,0.00,weatherlink.com 1.10,2013-05-12 09:40:00,
2013-05-12 05:55:00,33.6,32.0,29.84,South,191,4.0,7.0,95,0.00,,,0.00,weatherlink.com 1.10,2013-05-12 09:55:00,
2013-05-12 06:10:00,33.3,32.0,29.84,South,180,4.0,6.0,95,0.00,,,0.00,weatherlink.com 1.10,2013-05-12 10:10:00,
2013-05-12 06:25:00,33.1,32.0,29.84,South,174,4.0,6.0,95,0.00,,,0.00,weatherlink.com 1.10,2013-05-12 10:25:00,
2013-05-12 06:40:00,33.3,32.0,29.84,South,169,4.0,6.0,95,0.00,,,0.00,weatherlink.com 1.10,2013-05-12 10:40:00,
2013-05-12 06:55:00,33.5,32.0,29.84,South,178,5.0,7.0,95,0.00,,,0.00,weatherlink.com 1.10,2013-05-12 10:55:00,
2013-05-12 07:10:00,34.0,33.0,29.84,South,173,6.0,9.0,95,0.00,,,0.00,weatherlink.com 1.10,2013-05-12 11:10:00,
2013-05-12 07:25:00,35.0,34.0,29.84,South,175,10.0,11.0,95,0.00,,,0.00,weatherlink.com 1.10,2013-05-12 11:25:00,
2013-05-12 07:40:00,35.8,34.0,29.85,SW,214,7.0,15.0,93,0.00,,,0.00,weatherlink.com 1.10,2013-05-12 11:40:00,
2013-05-12 07:55:00,36.6,34.0,29.85,SW,215,14.0,14.0,91,0.00,,,0.00,weatherlink.com 1.10,2013-05-12 11:55:00,
2013-05-12 08:10:00,37.6,35.0,29.85,SW,234,11.0,16.0,89,0.00,,,0.00,weatherlink.com 1.10,2013-05-12 12:10:00,
2013-05-12 08:25:00,38.4,35.0,29.85,SSW,202,7.0,13.0,88,0.00,,,0.00,weatherlink.com 1.10,2013-05-12 12:25:00,
2013-05-12 08:41:00,39.5,36.0,29.85,SW,235,9.0,14.0,86,0.00,,,0.00,weatherlink.com 1.10,2013-05-12 12:41:00,
2013-05-12 08:56:00,39.8,34.0,29.85,West,276,5.0,20.0,80,0.00,,,0.00,weatherlink.com 1.10,2013-05-12 12:56:00,
2013-05-12 09:11:00,40.0,34.0,29.85,West,259,12.0,19.0,79,0.00,,,0.00,weatherlink.com 1.10,2013-05-12 13:11:00,
2013-05-12 09:26:00,40.4,34.0,29.85,SW,232,14.0,18.0,78,0.00,,,0.00,weatherlink.com 1.10,2013-05-12 13:26:00,
2013-05-12 09:41:00,39.9,33.0,29.85,WSW,242,11.0,23.0,77,0.00,,,0.00,weatherlink.com 1.10,2013-05-12 13:41:00,
2013-05-12 09:56:00,40.7,34.0,29.85,WNW,284,7.0,20.0,78,0.00,,,0.00,weatherlink.com 1.10,2013-05-12 13:56:00,
2013-05-12 10:11:00,41.0,34.0,29.84,West,271,11.0,21.0,75,0.01,,,0.01,weatherlink.com 1.10,2013-05-12 14:11:00,
2013-05-12 10:26:00,40.6,33.0,29.85,WNW,300,9.0,20.0,74,0.01,,,0.01,weatherlink.com 1.10,2013-05-12 14:26:00,
2013-05-12 10:41:00,41.1,34.0,29.85,WSW,257,9.0,26.0,76,0.01,,,0.01,weatherlink.com 1.10,2013-05-12 14:41:00,
2013-05-12 10:56:00,39.2,35.0,29.86,SSW,212,14.0,18.0,84,0.01,,,0.01,weatherlink.com 1.10,2013-05-12 14:56:00,
2013-05-12 11:11:00,39.4,35.0,29.86,SW,232,9.0,19.0,85,0.00,,,0.01,weatherlink.com 1.10,2013-05-12 15:11:00,
2013-05-12 11:26:00,39.0,36.0,29.87,SW,236,7.0,13.0,87,0.00,,,0.01,weatherlink.com 1.10,2013-05-12 15:26:00,
2013-05-12 11:41:00,40.5,36.0,29.87,WSW,249,10.0,17.0,84,0.00,,,0.01,weatherlink.com 1.10,2013-05-12 15:41:00,
2013-05-12 11:56:00,41.1,32.0,29.87,WNW,297,12.0,18.0,71,0.00,,,0.01,weatherlink.com 1.10,2013-05-12 15:56:00,
2013-05-12 12:11:00,40.7,31.0,29.88,WNW,289,10.0,25.0,69,0.00,,,0.01,weatherlink.com 1.10,2013-05-12 16:11:00,
2013-05-12 12:26:00,41.3,31.0,29.88,West,270,20.0,21.0,68,0.00,,,0.01,weatherlink.com 1.10,2013-05-12 16:26:00,
2013-05-12 12:41:00,41.9,30.0,29.87,West,268,15.0,20.0,64,0.00,,,0.01,weatherlink.com 1.10,2013-05-12 16:41:00,
2013-05-12 12:56:00,41.3,31.0,29.88,WNW,293,12.0,22.0,68,0.00,,,0.01,weatherlink.com 1.10,2013-05-12 16:56:00,
2013-05-12 13:11:00,42.4,30.0,29.88,WNW,296,4.0,21.0,62,0.00,,,0.01,weatherlink.com 1.10,2013-05-12 17:11:00,
2013-05-12 13:26:00,42.4,31.0,29.88,West,262,13.0,19.0,64,0.00,,,0.01,weatherlink.com 1.10,2013-05-12 17:26:00,
2013-05-12 13:41:00,41.9,29.0,29.89,West,266,8.0,22.0,60,0.00,,,0.01,weatherlink.com 1.10,2013-05-12 17:41:00,
2013-05-12 13:56:00,42.0,30.0,29.89,West,281,15.0,23.0,62,0.00,,,0.01,weatherlink.com 1.10,2013-05-12 17:56:00,
2013-05-12 14:11:00,43.1,30.0,29.89,West,275,12.0,24.0,60,0.00,,,0.01,weatherlink.com 1.10,2013-05-12 18:11:00,
2013-05-12 14:26:00,43.6,30.0,29.89,WSW,244,11.0,30.0,59,0.00,,,0.01,weatherlink.com 1.10,2013-05-12 18:26:00,
2013-05-12 14:41:00,43.2,29.0,29.89,West,261,11.0,26.0,57,0.00,,,0.01,weatherlink.com 1.10,2013-05-12 18:41:00,
2013-05-12 14:56:00,44.0,30.0,29.89,WNW,284,11.0,30.0,58,0.00,,,0.01,weatherlink.com 1.10,2013-05-12 18:56:00,
2013-05-12 15:11:00,43.9,31.0,29.89,West,271,9.0,24.0,60,0.00,,,0.01,weatherlink.com 1.10,2013-05-12 19:11:00,
2013-05-12 15:26:00,43.9,30.0,29.89,West,281,17.0,21.0,58,0.00,,,0.01,weatherlink.com 1.10,2013-05-12 19:26:00,
2013-05-12 15:41:00,43.1,29.0,29.89,West,269,12.0,30.0,59,0.00,,,0.01,weatherlink.com 1.10,2013-05-12 19:41:00,
2013-05-12 15:56:00,42.4,30.0,29.90,West,276,10.0,29.0,61,0.00,,,0.01,weatherlink.com 1.10,2013-05-12 19:56:00,
2013-05-12 16:11:00,42.5,30.0,29.91,WNW,291,15.0,26.0,61,0.00,,,0.01,weatherlink.com 1.10,2013-05-12 20:11:00,
2013-05-12 16:26:00,42.2,30.0,29.91,WSW,254,12.0,21.0,62,0.00,,,0.01,weatherlink.com 1.10,2013-05-12 20:26:00,
2013-05-12 16:41:00,44.5,29.0,29.91,West,261,13.0,28.0,56,0.00,,,0.01,weatherlink.com 1.10,2013-05-12 20:41:00,
2013-05-12 16:56:00,43.5,29.0,29.91,West,281,14.0,24.0,56,0.00,,,0.01,weatherlink.com 1.10,2013-05-12 20:56:00,
2013-05-12 17:11:00,43.3,29.0,29.91,WSW,252,13.0,23.0,57,0.00,,,0.01,weatherlink.com 1.10,2013-05-12 21:11:00,
2013-05-12 17:26:00,43.3,29.0,29.92,WNW,284,14.0,21.0,58,0.00,,,0.01,weatherlink.com 1.10,2013-05-12 21:26:00,
2013-05-12 17:41:00,43.0,29.0,29.92,West,265,8.0,19.0,57,0.00,,,0.01,weatherlink.com 1.10,2013-05-12 21:41:00,
2013-05-12 17:56:00,43.0,29.0,29.92,West,263,5.0,16.0,58,0.00,,,0.01,weatherlink.com 1.10,2013-05-12 21:56:00,
2013-05-12 18:11:00,43.0,29.0,29.92,West,271,8.0,26.0,57,0.00,,,0.01,weatherlink.com 1.10,2013-05-12 22:11:00,
2013-05-12 18:26:00,43.3,30.0,29.93,West,269,6.0,23.0,59,0.00,,,0.01,weatherlink.com 1.10,2013-05-12 22:26:00,
2013-05-12 18:41:00,43.4,30.0,29.93,NW,313,9.0,19.0,60,0.00,,,0.01,weatherlink.com 1.10,2013-05-12 22:41:00,
2013-05-12 18:56:00,43.2,29.0,29.93,West,277,13.0,22.0,58,0.00,,,0.01,weatherlink.com 1.10,2013-05-12 22:56:00,
2013-05-12 19:11:00,42.5,30.0,29.93,WNW,303,9.0,22.0,61,0.00,,,0.01,weatherlink.com 1.10,2013-05-12 23:11:00,
2013-05-12 19:26:00,42.3,30.0,29.94,West,278,9.0,14.0,63,0.00,,,0.01,weatherlink.com 1.10,2013-05-12 23:26:00,
2013-05-12 19:41:00,42.3,30.0,29.94,WSW,254,6.0,19.0,63,0.00,,,0.01,weatherlink.com 1.10,2013-05-12 23:41:00,
2013-05-12 19:56:00,42.1,30.0,29.94,West,273,15.0,19.0,63,0.00,,,0.01,weatherlink.com 1.10,2013-05-12 23:56:00,
2013-05-12 20:11:00,41.9,30.0,29.94,WSW,239,11.0,16.0,64,0.00,,,0.01,weatherlink.com 1.10,2013-05-13 00:11:00,
2013-05-12 20:26:00,41.9,31.0,29.94,WNW,298,11.0,22.0,65,0.00,,,0.01,weatherlink.com 1.10,2013-05-13 00:26:00,
2013-05-12 20:41:00,41.5,32.0,29.95,NW,315,11.0,20.0,70,0.00,,,0.01,weatherlink.com 1.10,2013-05-13 00:41:00,
2013-05-12 20:56:00,40.0,33.0,29.96,WNW,282,12.0,20.0,76,0.00,,,0.01,weatherlink.com 1.10,2013-05-13 00:56:00,
2013-05-12 21:11:00,38.2,34.0,29.96,WSW,238,12.0,18.0,83,0.01,,,0.02,weatherlink.com 1.10,2013-05-13 01:11:00,
2013-05-12 21:26:00,37.6,34.0,29.98,WNW,296,13.0,25.0,85,0.01,,,0.02,weatherlink.com 1.10,2013-05-13 01:26:00,
2013-05-12 21:41:00,35.7,33.0,29.99,WNW,303,11.0,19.0,90,0.02,,,0.03,weatherlink.com 1.10,2013-05-13 01:41:00,
2013-05-12 21:57:00,35.9,33.0,30.00,NW,313,6.0,11.0,90,0.03,,,0.04,weatherlink.com 1.10,2013-05-13 01:57:00,
2013-05-12 22:12:00,36.7,33.0,30.01,West,275,4.0,17.0,85,0.02,,,0.04,weatherlink.com 1.10,2013-05-13 02:12:00,
2013-05-12 22:27:00,36.5,32.0,30.01,WNW,300,9.0,17.0,82,0.02,,,0.04,weatherlink.com 1.10,2013-05-13 02:27:00,
2013-05-12 22:42:00,36.2,31.0,30.02,North,11,3.0,14.0,82,0.01,,,0.04,weatherlink.com 1.10,2013-05-13 02:42:00,
2013-05-12 22:57:00,36.2,31.0,30.02,North,5,5.0,12.0,80,0.00,,,0.04,weatherlink.com 1.10,2013-05-13 02:57:00,
2013-05-12 23:12:00,36.6,29.0,30.02,WNW,282,12.0,17.0,73,0.00,,,0.04,weatherlink.com 1.10,2013-05-13 03:12:00,
2013-05-12 23:27:00,36.2,28.0,30.02,NW,315,7.0,14.0,73,0.00,,,0.04,weatherlink.com 1.10,2013-05-13 03:27:00,
2013-05-12 23:42:00,35.9,28.0,30.02,WNW,296,4.0,13.0,72,0.00,,,0.04,weatherlink.com 1.10,2013-05-13 03:42:00,
2013-05-12 23:57:00,35.2,28.0,30.02,WNW,288,3.0,8.0,74,0.00,,,0.04,weatherlink.com 1.10,2013-05-13 03:57:00,